Terminal Aerodrome Forecast
Issued by NWS Corpus Christi, TX

Current Version | Previous Version | Text Only | Print | Product List | Glossary Off
Versions: 1 2 3 4 5 6 7 8 9 10 11 12 13 14 15 16 17 18 19 20

000
FTUS44 KCRP 181100
TAFVCT
TAF
KVCT 181129Z 1812/1912 02006KT P6SM OVC060
     FM181400 02010KT P6SM SCT030 OVC100
      TEMPO 1815/1817 BKN030
     FM181700 02012KT P6SM BKN040
     FM190200 VRB03KT P6SM BKN050
     FM191000 VRB04KT 5SM BR SCT001 BKN050=

USA.gov is the U.S. government's official web portal to all federal, state and local government web resources and services.